Time;durP1;ratioP1;P1;durP2;ratioP2;P2;SDS_P1;SDS_P2;PMS_P1;PMS_P2;Temp;Humidity;BMP_temperature;BMP_pressure;BME280_temperature;BME280_humidity;BME280_pressure;Samples;Min_cycle;Max_cycle;Signal;HPM_P1;HPM_P2
2022/01/05 00:01:36;;;;;;;11.68;6.95;;;;;;;3.92;86.50;98297.92;2082841;83;21120;-78
2022/01/05 00:04:37;;;;;;;10.03;7.28;;;;;;;3.87;86.49;98303.67;2090293;83;21082;-78
2022/01/05 00:07:44;;;;;;;31.90;8.30;;;;;;;3.79;86.44;98302.37;2084600;83;20962;-78
2022/01/05 00:10:49;;;;;;;9.28;6.47;;;;;;;3.75;86.51;98298.46;2086069;83;21017;-78
2022/01/05 00:13:51;;;;;;;11.15;5.97;;;;;;;3.73;86.59;98294.68;2092102;83;21055;-77
2022/01/05 00:16:53;;;;;;;9.70;5.50;;;;;;;3.70;86.56;98295.52;2111995;82;21053;-78
2022/01/05 00:19:57;;;;;;;10.45;5.53;;;;;;;3.69;86.71;98297.80;2109044;82;20997;-77
2022/01/05 00:22:58;;;;;;;8.63;4.65;;;;;;;3.68;86.74;98301.41;2094808;82;21056;-78
2022/01/05 00:26:03;;;;;;;13.15;4.90;;;;;;;3.71;86.84;98299.77;2089292;83;21063;-77
2022/01/05 00:29:07;;;;;;;8.25;4.62;;;;;;;3.72;86.87;98302.73;2096427;82;21041;-76
2022/01/05 00:32:13;;;;;;;8.03;4.53;;;;;;;3.75;86.88;98302.40;2097697;83;21544;-77
2022/01/05 00:35:17;;;;;;;9.55;5.20;;;;;;;3.79;86.90;98297.12;2089958;83;21095;-77
2022/01/05 00:38:21;;;;;;;9.33;5.20;;;;;;;3.80;86.87;98308.78;2090495;82;21048;-77
2022/01/05 00:41:22;;;;;;;8.78;5.10;;;;;;;3.86;86.85;98327.44;2091471;83;21010;-77
2022/01/05 00:44:26;;;;;;;8.13;5.00;;;;;;;3.85;86.77;98320.06;2090769;83;21020;-77
2022/01/05 00:47:32;;;;;;;7.72;4.40;;;;;;;3.88;86.73;98333.34;2069979;83;21060;-77
2022/01/05 00:50:35;;;;;;;7.47;4.42;;;;;;;3.88;86.68;98332.84;2093785;83;21087;-77
2022/01/05 00:53:39;;;;;;;8.03;4.30;;;;;;;3.91;86.65;98324.63;2089596;83;21886;-77
2022/01/05 00:56:41;;;;;;;7.90;4.45;;;;;;;3.96;86.74;98328.08;2089900;82;21108;-77
2022/01/05 00:59:42;;;;;;;7.20;4.15;;;;;;;4.04;86.78;98328.88;2088582;82;21074;-77
2022/01/05 01:02:44;;;;;;;7.62;4.72;;;;;;;4.17;86.84;98316.54;2091888;83;21504;-77
2022/01/05 01:05:48;;;;;;;6.78;4.22;;;;;;;4.29;86.88;98314.86;2092560;82;20986;-77
2022/01/05 01:08:52;;;;;;;10.63;4.75;;;;;;;4.36;86.78;98319.23;2090279;82;21054;-77
2022/01/05 01:11:55;;;;;;;8.33;5.33;;;;;;;4.40;86.66;98317.92;2093231;82;21575;-77
2022/01/05 01:15:05;;;;;;;10.85;5.33;;;;;;;4.48;86.64;98317.07;2096598;83;21012;-77
2022/01/05 01:18:07;;;;;;;8.25;4.78;;;;;;;4.49;86.46;98332.64;2098192;83;21124;-77
2022/01/05 01:21:12;;;;;;;7.92;4.67;;;;;;;4.54;86.40;98336.58;2101621;83;21566;-77
2022/01/05 01:24:18;;;;;;;6.33;4.10;;;;;;;4.58;86.43;98339.17;2095860;83;21390;-77
2022/01/05 01:27:21;;;;;;;7.62;4.50;;;;;;;4.61;86.36;98335.70;2101774;83;21749;-77
2022/01/05 01:30:25;;;;;;;6.83;4.35;;;;;;;4.67;86.37;98340.29;2099006;83;20994;-77
2022/01/05 01:33:28;;;;;;;9.73;6.55;;;;;;;4.76;86.31;98342.84;2070968;83;21078;-77
2022/01/05 01:36:33;;;;;;;12.33;5.97;;;;;;;4.75;85.98;98350.41;2076811;83;21482;-77
2022/01/05 01:39:38;;;;;;;10.40;6.45;;;;;;;4.68;85.92;98353.73;2091752;83;21462;-77
2022/01/05 01:42:44;;;;;;;9.10;5.60;;;;;;;4.69;86.02;98347.48;2083354;83;21137;-77
2022/01/05 01:45:52;;;;;;;7.20;4.58;;;;;;;4.70;86.00;98360.12;2115078;82;21779;-77
2022/01/05 01:48:51;;;;;;;8.73;4.95;;;;;;;4.67;85.81;98356.05;2099288;83;21053;-77
2022/01/05 01:51:58;;;;;;;7.95;4.75;;;;;;;4.67;85.84;98354.73;2093514;83;21077;-77
2022/01/05 01:55:02;;;;;;;9.60;4.42;;;;;;;4.68;85.68;98360.81;2095896;83;21111;-77
2022/01/05 01:58:06;;;;;;;7.83;4.80;;;;;;;4.65;85.70;98355.90;2095505;83;21550;-78
2022/01/05 02:01:08;;;;;;;9.08;4.83;;;;;;;4.64;85.73;98349.80;2116276;83;21333;-77
2022/01/05 02:04:11;;;;;;;9.10;4.92;;;;;;;4.67;85.84;98336.82;2113801;83;21018;-77
2022/01/05 02:07:15;;;;;;;7.10;4.20;;;;;;;4.74;85.96;98337.78;2112983;82;21041;-78
2022/01/05 02:10:21;;;;;;;7.75;4.53;;;;;;;4.78;85.82;98331.67;2115583;82;21024;-77
2022/01/05 02:13:22;;;;;;;10.48;4.35;;;;;;;4.76;85.66;98321.83;2099593;82;21331;-77
2022/01/05 02:16:31;;;;;;;9.35;4.67;;;;;;;4.77;85.60;98322.98;2118954;82;21378;-77
2022/01/05 02:19:31;;;;;;;7.87;4.37;;;;;;;4.77;85.56;98319.03;2081498;83;21505;-77
2022/01/05 02:22:33;;;;;;;7.72;3.67;;;;;;;4.78;85.53;98304.08;2077138;83;21058;-77
2022/01/05 02:25:37;;;;;;;7.42;3.75;;;;;;;4.80;85.51;98309.99;2081909;83;21037;-77
2022/01/05 02:28:42;;;;;;;6.55;4.00;;;;;;;4.82;85.51;98323.78;2075680;83;21502;-77
2022/01/05 02:31:48;;;;;;;4.55;3.27;;;;;;;4.81;85.44;98339.21;2079426;83;21041;-77
2022/01/05 02:34:51;;;;;;;7.17;3.95;;;;;;;4.81;85.49;98335.27;2081594;84;21283;-78
2022/01/05 02:37:54;;;;;;;5.60;3.62;;;;;;;4.82;85.49;98321.97;2078621;83;21871;-77
2022/01/05 02:41:02;;;;;;;6.67;3.67;;;;;;;4.81;85.39;98315.56;2073421;84;21108;-77
2022/01/05 02:44:07;;;;;;;6.53;3.65;;;;;;;4.82;85.43;98319.34;2077196;83;21065;-78
2022/01/05 02:47:12;;;;;;;6.15;3.52;;;;;;;4.86;85.47;98317.98;2077553;83;21089;-77
2022/01/05 02:50:19;;;;;;;4.70;3.33;;;;;;;4.91;85.45;98313.53;2074769;83;21554;-77
2022/01/05 02:53:23;;;;;;;5.67;3.37;;;;;;;4.97;85.40;98311.52;2064451;83;21028;-77
2022/01/05 02:56:26;;;;;;;6.28;3.55;;;;;;;5.01;85.31;98304.09;2080912;83;20975;-77
2022/01/05 02:59:29;;;;;;;6.30;4.15;;;;;;;5.04;85.31;98306.36;2077525;83;21046;-78
2022/01/05 03:02:33;;;;;;;8.10;4.67;;;;;;;5.08;85.29;98308.98;2081625;83;21844;-77
2022/01/05 03:05:40;;;;;;;8.25;4.12;;;;;;;5.12;85.27;98308.94;2078524;83;21034;-77
2022/01/05 03:08:48;;;;;;;7.17;3.83;;;;;;;5.12;85.22;98301.89;2078995;83;21071;-77
2022/01/05 03:11:50;;;;;;;8.90;4.05;;;;;;;5.14;85.16;98309.09;2074522;83;21024;-78
2022/01/05 03:14:53;;;;;;;7.08;4.00;;;;;;;5.19;85.03;98322.22;2077650;83;21565;-77
2022/01/05 03:17:57;;;;;;;6.25;3.92;;;;;;;5.21;84.96;98317.58;2078640;83;21399;-77
2022/01/05 03:21:01;;;;;;;8.48;4.58;;;;;;;5.22;84.95;98318.73;2109403;82;20985;-77
2022/01/05 03:24:06;;;;;;;7.67;4.95;;;;;;;5.28;85.08;98325.91;2073204;83;21046;-77
2022/01/05 03:27:11;;;;;;;8.68;4.22;;;;;;;5.34;85.19;98326.52;2082094;83;21036;-78
2022/01/05 03:30:17;;;;;;;6.67;4.37;;;;;;;5.45;85.16;98325.28;2081701;83;21059;-77
2022/01/05 03:33:24;;;;;;;6.35;4.03;;;;;;;5.42;84.75;98322.19;2066621;83;21759;-77
2022/01/05 03:36:25;;;;;;;7.50;4.42;;;;;;;5.32;84.67;98320.63;2077063;83;21059;-77
2022/01/05 03:39:29;;;;;;;9.10;3.85;;;;;;;5.33;84.82;98322.26;2091993;83;21039;-77
2022/01/05 03:42:33;;;;;;;8.98;4.30;;;;;;;5.38;84.93;98327.81;2089025;83;21348;-78
2022/01/05 03:45:40;;;;;;;10.80;4.90;;;;;;;5.42;84.83;98328.77;2093081;82;21615;-78
2022/01/05 03:48:41;;;;;;;10.60;5.03;;;;;;;5.46;84.82;98326.91;2089377;83;21053;-78
2022/01/05 03:51:46;;;;;;;10.00;5.22;;;;;;;5.50;84.78;98336.09;2093149;83;21013;-78
2022/01/05 03:54:49;;;;;;;15.15;10.45;;;;;;;5.52;84.67;98345.11;2099909;82;21122;-78
2022/01/05 03:57:54;;;;;;;13.05;7.80;;;;;;;5.48;84.48;98353.86;2090952;83;21056;-78
2022/01/05 04:00:58;;;;;;;14.35;6.53;;;;;;;5.43;84.41;98343.55;2093248;82;20959;-78
2022/01/05 04:04:00;;;;;;;7.50;4.58;;;;;;;5.38;84.36;98354.11;2090820;83;21419;-78
2022/01/05 04:07:05;;;;;;;8.15;4.45;;;;;;;5.36;84.29;98328.98;2095474;83;20991;-78
2022/01/05 04:10:08;;;;;;;6.85;4.10;;;;;;;5.36;84.30;98324.53;2091112;82;21631;-77
2022/01/05 04:13:12;;;;;;;7.22;4.00;;;;;;;5.38;84.22;98318.61;2082423;82;21436;-78
2022/01/05 04:16:19;;;;;;;7.50;3.98;;;;;;;5.44;84.28;98313.64;2080857;82;21073;-78
2022/01/05 04:19:23;;;;;;;8.45;4.10;;;;;;;5.49;84.18;98306.00;2080085;83;21037;-78
2022/01/05 04:22:28;;;;;;;8.98;4.58;;;;;;;5.50;84.05;98311.60;2080326;83;21041;-78
2022/01/05 04:25:32;;;;;;;6.53;4.12;;;;;;;5.49;83.91;98315.21;2078618;84;21050;-78
2022/01/05 04:28:35;;;;;;;10.35;4.90;;;;;;;5.45;83.77;98327.91;2066639;83;21065;-78
2022/01/05 04:31:37;;;;;;;15.28;5.62;;;;;;;5.38;83.63;98317.29;2101747;82;21073;-78
2022/01/05 04:34:39;;;;;;;10.88;4.97;;;;;;;5.36;83.69;98300.86;2069242;84;21035;-78
2022/01/05 04:37:42;;;;;;;10.43;4.40;;;;;;;5.38;83.71;98311.22;2072132;82;21040;-77
2022/01/05 04:40:47;;;;;;;7.00;3.80;;;;;;;5.37;83.66;98316.14;2069092;84;20998;-78
2022/01/05 04:43:53;;;;;;;8.65;4.58;;;;;;;5.43;83.67;98308.03;2075624;84;21076;-77
2022/01/05 04:46:57;;;;;;;6.45;3.67;;;;;;;5.42;83.64;98309.85;2061285;86;21020;-77
2022/01/05 04:50:01;;;;;;;7.58;4.10;;;;;;;5.43;83.53;98305.41;2056402;84;21488;-77
2022/01/05 04:53:21;;;;;;;7.10;3.83;;;;;;;5.41;83.51;98320.06;2050103;86;21048;-77
2022/01/05 05:05:13;;;;;;;6.80;4.05;;;;;;;5.29;83.39;98311.75;2050613;87;21830;-77
2022/01/05 05:12:45;;;;;;;6.67;4.22;;;;;;;5.24;83.33;98335.66;2070064;83;21616;-78
2022/01/05 05:15:51;;;;;;;7.83;3.95;;;;;;;5.28;83.39;98323.28;2077428;83;20982;-78
2022/01/05 05:18:52;;;;;;;6.90;3.87;;;;;;;5.29;83.37;98334.11;2080875;83;21336;-77
2022/01/05 05:21:59;;;;;;;8.68;4.55;;;;;;;5.31;83.41;98321.61;2077333;83;20994;-77
2022/01/05 05:25:04;;;;;;;12.13;5.95;;;;;;;5.25;83.23;98325.45;2082903;83;21042;-78
2022/01/05 05:28:12;;;;;;;8.68;5.33;;;;;;;5.19;83.25;98317.77;2072803;83;21497;-76
2022/01/05 05:31:13;;;;;;;7.47;5.70;;;;;;;5.16;83.27;98300.53;2071497;83;22052;-77
2022/01/05 05:34:17;;;;;;;8.10;5.33;;;;;;;5.17;83.34;98320.56;2072410;83;21055;-76
2022/01/05 05:37:24;;;;;;;8.50;5.30;;;;;;;5.18;83.26;98320.09;2076341;83;21470;-77
2022/01/05 05:40:30;;;;;;;10.53;5.75;;;;;;;5.21;83.29;98318.42;2089222;84;21581;-77
2022/01/05 05:43:31;;;;;;;8.88;5.83;;;;;;;5.22;83.25;98327.13;2080592;83;21903;-74
2022/01/05 05:46:37;;;;;;;9.75;6.10;;;;;;;5.21;83.31;98324.16;2084740;83;20976;-77
2022/01/05 05:49:45;;;;;;;9.20;5.47;;;;;;;5.16;83.17;98328.64;2078581;83;21737;-77
2022/01/05 05:52:48;;;;;;;8.30;5.00;;;;;;;5.16;83.26;98318.13;2079110;84;21013;-81
2022/01/05 05:55:54;;;;;;;9.78;5.17;;;;;;;5.08;83.15;98308.48;2074895;83;21114;-83
2022/01/05 05:58:58;;;;;;;9.80;6.25;;;;;;;5.03;83.10;98300.80;2064383;83;20979;-78
2022/01/05 06:01:59;;;;;;;8.13;5.72;;;;;;;4.97;83.13;98286.55;2074220;83;21095;-78
2022/01/05 06:05:02;;;;;;;6.90;4.92;;;;;;;4.92;83.09;98302.83;2080899;83;21075;-78
2022/01/05 06:08:06;;;;;;;9.73;6.05;;;;;;;4.86;83.17;98301.41;2075798;83;21042;-78
2022/01/05 06:11:09;;;;;;;8.40;4.90;;;;;;;4.81;83.26;98297.16;2080261;83;21675;-78
2022/01/05 06:14:14;;;;;;;6.87;4.37;;;;;;;4.76;83.27;98295.55;2080428;83;21061;-78
2022/01/05 06:17:20;;;;;;;6.45;4.65;;;;;;;4.74;83.42;98294.42;2081318;83;21634;-78
2022/01/05 06:20:24;;;;;;;7.95;5.12;;;;;;;4.79;83.57;98301.30;2076750;83;21657;-78
2022/01/05 06:23:26;;;;;;;10.18;5.28;;;;;;;4.86;83.59;98310.10;2079959;83;20985;-79
2022/01/05 06:26:29;;;;;;;11.70;7.22;;;;;;;4.92;83.54;98312.03;2091590;83;21306;-78
2022/01/05 06:29:38;;;;;;;8.95;5.62;;;;;;;4.98;83.45;98316.27;2089109;83;21070;-79
2022/01/05 06:32:46;;;;;;;10.38;6.15;;;;;;;4.98;83.27;98322.84;2067900;83;21092;-78
2022/01/05 06:35:51;;;;;;;11.20;6.62;;;;;;;4.89;83.17;98312.38;2094784;83;20955;-78
2022/01/05 06:38:55;;;;;;;11.55;7.22;;;;;;;4.83;83.23;98313.58;2088879;83;21549;-78
2022/01/05 06:42:00;;;;;;;10.70;6.67;;;;;;;4.78;83.33;98313.28;2092260;83;21049;-79
2022/01/05 06:45:06;;;;;;;10.58;5.97;;;;;;;4.73;83.43;98315.13;2082757;83;21081;-78
2022/01/05 06:48:10;;;;;;;10.13;6.42;;;;;;;4.72;83.44;98318.73;2088295;83;21025;-77
2022/01/05 06:51:13;;;;;;;8.15;6.03;;;;;;;4.73;83.53;98303.31;2089879;83;21596;-77
2022/01/05 06:54:26;;;;;;;10.48;6.62;;;;;;;4.78;83.60;98308.84;2067661;83;21498;-75
2022/01/05 06:57:27;;;;;;;10.00;6.67;;;;;;;4.86;83.57;98320.62;2088302;83;21076;-77
2022/01/05 07:00:38;;;;;;;9.33;6.62;;;;;;;4.87;83.41;98318.33;2089500;83;21131;-77
2022/01/05 07:03:41;;;;;;;10.45;6.58;;;;;;;4.92;83.40;98312.03;2082344;83;21043;-78
2022/01/05 07:06:44;;;;;;;11.03;7.42;;;;;;;4.91;83.29;98318.29;2090738;83;21085;-77
2022/01/05 07:09:46;;;;;;;9.30;6.37;;;;;;;4.89;83.30;98312.38;2075132;84;21127;-76
2022/01/05 07:12:50;;;;;;;8.65;6.67;;;;;;;4.88;83.28;98311.26;2108816;82;21006;-77
2022/01/05 07:15:57;;;;;;;9.28;6.50;;;;;;;4.87;83.27;98315.70;2107423;82;21037;-76
2022/01/05 07:18:59;;;;;;;9.43;6.15;;;;;;;4.88;83.33;98321.27;2102351;82;21108;-77
2022/01/05 07:22:00;;;;;;;10.23;5.75;;;;;;;4.91;83.42;98318.29;2096119;82;21345;-77
2022/01/05 07:25:05;;;;;;;9.20;5.95;;;;;;;4.92;83.38;98325.17;2094723;83;21036;-75
2022/01/05 07:28:10;;;;;;;9.75;6.50;;;;;;;4.94;83.42;98320.56;2095735;83;21907;-76
2022/01/05 07:31:11;;;;;;;9.85;6.67;;;;;;;4.96;83.44;98322.22;2093323;83;21338;-77
2022/01/05 07:34:18;;;;;;;9.83;6.87;;;;;;;4.93;83.45;98324.20;2073758;84;21023;-76
2022/01/05 07:37:19;;;;;;;9.28;6.03;;;;;;;4.92;83.42;98319.10;2111946;82;21077;-76
2022/01/05 07:40:21;;;;;;;8.00;5.95;;;;;;;4.90;83.41;98323.23;2085813;83;21006;-76
2022/01/05 07:43:23;;;;;;;9.80;5.97;;;;;;;4.89;83.41;98322.08;2074756;83;21010;-76
2022/01/05 07:46:26;;;;;;;9.70;5.95;;;;;;;4.90;83.53;98308.78;2082435;83;20994;-76
2022/01/05 07:49:28;;;;;;;10.40;7.20;;;;;;;4.93;83.52;98313.69;2100199;82;21010;-76
2022/01/05 07:52:32;;;;;;;12.63;8.53;;;;;;;4.93;83.53;98314.19;2110513;82;21024;-77
2022/01/05 07:55:35;;;;;;;16.52;9.38;;;;;;;4.96;83.56;98313.84;2110391;82;21128;-76
2022/01/05 07:58:37;;;;;;;18.17;11.48;;;;;;;4.99;83.61;98317.92;2109941;82;21428;-77
2022/01/05 08:01:39;;;;;;;18.30;11.05;;;;;;;5.00;83.68;98312.98;2113710;82;20983;-76
2022/01/05 08:04:48;;;;;;;17.07;9.45;;;;;;;5.00;83.61;98314.30;2090944;82;21058;-76
2022/01/05 08:07:49;;;;;;;15.15;9.50;;;;;;;4.98;83.63;98322.84;2110285;82;21381;-77
2022/01/05 08:10:53;;;;;;;11.00;7.22;;;;;;;4.97;83.72;98318.09;2105734;82;21344;-76
2022/01/05 08:13:55;;;;;;;9.13;6.95;;;;;;;5.00;83.75;98330.06;2059616;83;21087;-76
2022/01/05 08:16:57;;;;;;;10.65;6.50;;;;;;;5.01;83.75;98327.75;2053153;85;21923;-77
2022/01/05 08:20:01;;;;;;;10.88;7.10;;;;;;;5.06;83.80;98342.50;2049323;85;21032;-76
2022/01/05 08:23:03;;;;;;;11.60;7.78;;;;;;;5.12;83.80;98323.40;2048714;85;21543;-76
2022/01/05 08:26:06;;;;;;;10.15;7.17;;;;;;;5.17;83.85;98325.82;2047097;85;21295;-77
2022/01/05 08:29:08;;;;;;;11.63;8.13;;;;;;;5.24;83.83;98330.41;2051863;85;21059;-76
2022/01/05 08:32:18;;;;;;;13.55;8.63;;;;;;;5.26;83.70;98333.66;2045422;85;21087;-77
2022/01/05 08:35:23;;;;;;;14.53;8.45;;;;;;;5.22;83.58;98335.83;2043812;85;21065;-77
2022/01/05 08:38:25;;;;;;;11.25;7.67;;;;;;;5.21;83.62;98340.77;2051170;85;21477;-77
2022/01/05 08:41:30;;;;;;;12.82;7.58;;;;;;;5.20;83.61;98340.44;2048616;85;21313;-76
2022/01/05 08:44:32;;;;;;;9.78;7.10;;;;;;;5.21;83.60;98343.88;2045679;85;21002;-77
2022/01/05 08:47:36;;;;;;;12.13;7.28;;;;;;;5.19;83.63;98344.06;2046257;85;21053;-77
2022/01/05 08:50:38;;;;;;;16.73;9.50;;;;;;;5.23;83.66;98344.02;2047430;85;21590;-76
2022/01/05 08:53:40;;;;;;;14.87;8.68;;;;;;;5.25;83.70;98352.56;2045770;85;21838;-77
2022/01/05 08:56:44;;;;;;;14.65;7.50;;;;;;;5.24;83.73;98356.20;2047273;85;22252;-76
2022/01/05 08:59:47;;;;;;;9.35;7.20;;;;;;;5.21;83.73;98348.66;2049609;85;21044;-76
2022/01/05 09:02:51;;;;;;;12.40;7.72;;;;;;;5.20;83.82;98347.00;2046645;85;21060;-77
2022/01/05 09:05:56;;;;;;;11.25;7.87;;;;;;;5.17;83.87;98338.97;2042418;85;21074;-77
2022/01/05 09:08:58;;;;;;;13.60;8.35;;;;;;;5.16;83.93;98337.34;2045477;85;21100;-77
2022/01/05 09:11:59;;;;;;;13.50;8.48;;;;;;;5.20;84.00;98348.32;2045427;85;20990;-77
2022/01/05 09:15:03;;;;;;;18.48;10.08;;;;;;;5.20;84.11;98345.69;2070316;84;21097;-77
2022/01/05 09:18:07;;;;;;;16.55;9.38;;;;;;;5.25;84.19;98346.49;2070378;82;21518;-77
2022/01/05 09:21:11;;;;;;;13.88;8.83;;;;;;;5.27;84.25;98353.72;2070119;84;21505;-76
2022/01/05 09:24:13;;;;;;;15.23;9.58;;;;;;;5.27;84.29;98342.70;2065743;84;21785;-76
2022/01/05 09:27:16;;;;;;;16.52;9.88;;;;;;;5.31;84.35;98342.65;2068707;84;21571;-77
2022/01/05 09:30:20;;;;;;;13.53;9.18;;;;;;;5.36;84.40;98340.81;2074322;84;21057;-77
2022/01/05 09:33:24;;;;;;;16.17;9.40;;;;;;;5.38;84.39;98351.48;2073320;84;21299;-77
2022/01/05 09:36:35;;;;;;;16.15;9.35;;;;;;;5.44;84.54;98351.78;2114388;82;21024;-77
2022/01/05 09:42:57;;;;;;;14.23;7.28;;;;;;;5.45;84.39;98330.54;2094832;83;20986;-77
2022/01/05 09:46:09;;;;;;;18.75;7.65;;;;;;;5.44;84.44;98330.73;2093570;83;21773;-77
2022/01/05 09:49:21;;;;;;;13.80;6.70;;;;;;;5.45;84.53;98334.98;2094274;82;21015;-77
2022/01/05 09:52:23;;;;;;;7.62;5.28;;;;;;;5.47;84.58;98346.16;2092350;83;20994;-76
2022/01/05 09:55:28;;;;;;;6.05;4.17;;;;;;;5.47;84.61;98342.22;2094739;83;21756;-77
2022/01/05 09:58:32;;;;;;;6.90;4.30;;;;;;;5.51;84.67;98348.23;2096304;83;21728;-76
2022/01/05 10:01:37;;;;;;;7.58;3.95;;;;;;;5.56;84.70;98359.05;2101429;83;21086;-76
2022/01/05 10:04:41;;;;;;;6.65;4.72;;;;;;;5.53;84.53;98375.70;2090257;82;21052;-76
2022/01/05 10:07:43;;;;;;;5.80;3.95;;;;;;;5.49;84.31;98377.03;2090387;83;21520;-76
2022/01/05 10:10:45;;;;;;;5.85;3.87;;;;;;;5.45;84.36;98375.26;2096070;83;21098;-77
2022/01/05 10:13:49;;;;;;;4.55;3.42;;;;;;;5.37;84.44;98355.09;2091408;83;21886;-77
2022/01/05 10:17:07;;;;;;;5.08;3.40;;;;;;;5.36;84.54;98363.98;2093233;83;21022;-76
2022/01/05 10:20:13;;;;;;;6.08;3.55;;;;;;;5.36;84.56;98358.72;2082946;83;21832;-77
2022/01/05 10:23:23;;;;;;;4.20;3.33;;;;;;;5.36;84.53;98363.98;2089046;83;21515;-77
2022/01/05 10:26:34;;;;;;;5.37;3.08;;;;;;;5.34;84.45;98359.39;2083624;83;21840;-77
2022/01/05 10:29:36;;;;;;;;;;;;;;;5.35;84.58;98355.78;2075453;83;21520;-77
2022/01/05 10:32:41;;;;;;;7.12;4.15;;;;;;;5.36;84.59;98358.72;2097148;83;20128;-77
2022/01/05 10:35:57;;;;;;;6.12;3.62;;;;;;;5.35;84.58;98361.05;2089406;83;21363;-76
2022/01/05 10:39:01;;;;;;;7.55;4.20;;;;;;;5.37;84.63;98368.23;2088970;83;21037;-76
2022/01/05 10:42:11;;;;;;;11.48;5.78;;;;;;;5.42;84.78;98378.24;2085210;83;21650;-77
2022/01/05 10:45:26;;;;;;;9.27;5.10;;;;;;;5.41;84.65;98387.14;2086644;83;21515;-76
2022/01/05 10:48:30;;;;;;;12.15;6.00;;;;;;;5.35;84.71;98395.23;2091075;83;21065;-77
2022/01/05 10:51:35;;;;;;;19.12;7.72;;;;;;;5.30;84.73;98392.30;2092903;83;21035;-77
2022/01/05 10:54:37;;;;;;;17.95;7.17;;;;;;;5.24;84.79;98394.33;2094512;83;21154;-78
2022/01/05 10:58:05;;;;;;;11.22;5.10;;;;;;;5.18;84.94;98398.97;2094271;83;21248;-78
2022/01/05 11:01:07;;;;;;;5.62;3.50;;;;;;;5.17;85.08;98395.50;2083971;83;21832;-74
2022/01/05 11:04:20;;;;;;;2.02;1.90;;;;;;;5.00;83.87;98423.38;2025780;83;21033;-77
2022/01/05 11:07:26;;;;;;;4.03;2.70;;;;;;;4.56;82.74;98423.42;2089711;83;21096;-77
2022/01/05 11:10:32;;;;;;;3.40;1.92;;;;;;;4.22;83.40;98418.40;2088221;83;20986;-76
2022/01/05 11:13:52;;;;;;;2.62;1.90;;;;;;;3.93;83.28;98450.44;2098446;83;21049;-76
2022/01/05 11:16:58;;;;;;;1.87;1.45;;;;;;;3.68;83.49;98465.36;2110517;82;21032;-76
2022/01/05 11:20:10;;;;;;;1.82;1.60;;;;;;;3.44;83.63;98473.53;2108430;82;21051;-77
2022/01/05 11:23:14;;;;;;;2.52;2.02;;;;;;;3.31;83.93;98469.23;2114854;82;21031;-77
2022/01/05 11:26:16;;;;;;;2.92;2.17;;;;;;;3.24;84.19;98469.53;2089726;82;21304;-77
2022/01/05 11:29:21;;;;;;;3.47;2.08;;;;;;;3.23;84.43;98473.15;2109704;82;21348;-77
2022/01/05 11:32:27;;;;;;;4.53;2.17;;;;;;;3.12;83.86;98481.63;2111429;82;21038;-76
2022/01/05 11:35:29;;;;;;;3.77;1.92;;;;;;;3.01;83.49;98490.27;2084282;83;21095;-77
2022/01/05 11:38:31;;;;;;;3.33;2.08;;;;;;;2.89;83.61;98494.98;2089690;83;21084;-76
2022/01/05 11:41:39;;;;;;;2.50;1.77;;;;;;;2.82;83.66;98511.83;2095502;83;21450;-76
2022/01/05 11:44:50;;;;;;;4.87;1.95;;;;;;;2.76;83.84;98515.08;2099799;83;21043;-77
2022/01/05 11:48:13;;;;;;;4.60;2.35;;;;;;;2.77;83.96;98528.48;2094839;83;20992;-77
2022/01/05 11:51:20;;;;;;;5.00;2.00;;;;;;;2.78;84.07;98529.30;2098492;83;21013;-77
2022/01/05 11:54:30;;;;;;;4.97;2.30;;;;;;;2.80;83.80;98537.84;2095300;83;21552;-76
2022/01/05 11:57:32;;;;;;;7.08;2.60;;;;;;;2.83;83.84;98540.96;2095488;83;21020;-73
2022/01/05 12:00:34;;;;;;;8.35;2.95;;;;;;;2.85;83.92;98536.89;2075615;83;21824;-76
2022/01/05 12:04:01;;;;;;;6.60;2.37;;;;;;;2.81;83.59;98530.30;2093474;83;21663;-77
2022/01/05 12:07:17;;;;;;;5.97;2.60;;;;;;;2.74;83.35;98536.66;2073100;83;25900;-77
2022/01/05 12:10:30;;;;;;;4.08;2.35;;;;;;;2.71;83.66;98544.83;2097918;83;21612;-76
2022/01/05 12:13:46;;;;;;;5.90;2.62;;;;;;;2.68;83.59;98555.13;2085578;83;21943;-76
2022/01/05 12:17:14;;;;;;;6.62;2.42;;;;;;;2.65;83.73;98561.98;2078776;83;21428;-76
2022/01/05 12:20:15;;;;;;;10.95;2.92;;;;;;;2.59;83.70;98546.89;2075824;83;20959;-77
2022/01/05 12:23:27;;;;;;;6.53;2.98;;;;;;;2.61;83.91;98557.20;2058826;83;21780;-76
2022/01/05 12:26:32;;;;;;;7.83;2.77;;;;;;;2.60;84.08;98571.28;2073429;83;21003;-77
2022/01/05 12:29:34;;;;;;;7.15;3.02;;;;;;;2.58;83.87;98565.36;2078901;83;21085;-76
2022/01/05 12:32:43;;;;;;;7.05;2.50;;;;;;;2.50;83.92;98568.74;2115482;82;20999;-76
2022/01/05 12:36:01;;;;;;;8.35;3.33;;;;;;;2.51;84.20;98580.88;2094174;82;20978;-76
2022/01/05 12:39:08;;;;;;;6.42;3.20;;;;;;;2.50;84.23;98584.45;2111291;82;21576;-77
2022/01/05 12:42:23;;;;;;;4.95;2.12;;;;;;;2.46;84.08;98583.94;2113756;82;21045;-76
2022/01/05 12:45:52;;;;;;;7.05;2.50;;;;;;;2.43;83.96;98572.96;2100820;82;21023;-76
2022/01/05 12:48:56;;;;;;;9.00;3.52;;;;;;;2.40;84.15;98573.27;2111655;82;20988;-76
2022/01/05 12:52:05;;;;;;;6.47;2.70;;;;;;;2.39;84.08;98567.67;2112284;82;21463;-77
2022/01/05 12:55:08;;;;;;;5.40;2.40;;;;;;;2.40;84.32;98572.77;2069802;84;21020;-76
2022/01/05 12:58:13;;;;;;;6.53;2.40;;;;;;;2.39;84.36;98569.83;2104670;82;21065;-76
2022/01/05 13:01:16;;;;;;;5.95;2.37;;;;;;;2.32;84.36;98570.58;2068758;84;21068;-76
2022/01/05 13:04:19;;;;;;;5.20;2.60;;;;;;;2.28;84.48;98592.78;2079857;83;21010;-76
2022/01/05 13:07:23;;;;;;;8.03;2.92;;;;;;;2.25;84.64;98582.13;2103263;83;20994;-76
2022/01/05 13:10:28;;;;;;;5.00;2.62;;;;;;;2.22;84.62;98604.22;2100396;81;21833;-76
2022/01/05 13:13:30;;;;;;;6.08;2.25;;;;;;;2.16;84.67;98593.51;2077176;83;21053;-76
2022/01/05 13:16:35;;;;;;;10.55;3.75;;;;;;;2.10;84.40;98602.78;2065998;84;21015;-76
2022/01/05 13:19:51;;;;;;;6.67;3.20;;;;;;;2.10;84.50;98597.55;2038362;85;20989;-76
2022/01/05 13:22:52;;;;;;;6.97;2.80;;;;;;;2.11;84.49;98607.06;2044664;85;21136;-73
2022/01/05 13:26:25;;;;;;;;;;;;;;;;;;;;;
2022/01/05 13:29:53;;;;;;;8.73;2.98;;;;;;;2.10;84.61;98615.86;1999566;86;21121;-77
2022/01/05 13:33:11;;;;;;;9.20;3.20;;;;;;;2.11;84.67;98610.98;2016588;86;21085;-76
2022/01/05 13:36:17;;;;;;;8.50;3.60;;;;;;;2.10;84.72;98601.96;2024073;87;21061;-76
2022/01/05 13:39:35;;;;;;;13.43;4.53;;;;;;;2.11;84.64;98600.98;2022568;87;21045;-76
2022/01/05 13:43:01;;;;;;;9.88;3.47;;;;;;;2.14;84.57;98598.06;2022137;86;21058;-77
2022/01/05 13:46:04;;;;;;;10.25;3.62;;;;;;;2.14;84.52;98602.83;2022278;87;21036;-78
2022/01/05 13:49:18;;;;;;;10.75;4.20;;;;;;;2.18;84.57;98613.81;2023602;87;21049;-77
2022/01/05 13:52:18;;;;;;;11.80;4.37;;;;;;;2.23;84.65;98614.20;2022288;87;21054;-78
2022/01/05 13:55:25;;;;;;;14.13;4.50;;;;;;;2.26;84.55;98609.14;2021037;87;21021;-77
2022/01/05 13:58:29;;;;;;;10.53;3.87;;;;;;;2.25;84.43;98614.84;2027618;87;21350;-77
2022/01/05 14:01:32;;;;;;;11.80;4.05;;;;;;;2.22;84.33;98615.99;2023352;86;21003;-77
2022/01/05 14:04:58;;;;;;;6.62;3.05;;;;;;;2.20;84.34;98625.78;2021595;87;21339;-77
2022/01/05 14:08:09;;;;;;;13.95;3.58;;;;;;;2.20;84.03;98634.13;2022016;87;21072;-77
2022/01/05 14:11:15;;;;;;;13.08;4.60;;;;;;;2.18;84.04;98647.34;2023629;87;21133;-77
2022/01/05 14:14:17;;;;;;;15.18;7.28;;;;;;;2.13;83.91;98660.05;2024796;87;21026;-78
2022/01/05 14:17:22;;;;;;;37.58;22.25;;;;;;;2.12;83.93;98666.27;2023330;87;21001;-77
2022/01/05 14:20:24;;;;;;;24.70;16.00;;;;;;;2.11;83.86;98674.25;2023219;87;21112;-76
2022/01/05 14:23:26;;;;;;;12.33;4.90;;;;;;;2.12;83.86;98666.27;2023053;87;21323;-76
2022/01/05 14:26:35;;;;;;;24.80;11.83;;;;;;;2.11;83.82;98672.94;2018450;87;21010;-77
2022/01/05 14:29:42;;;;;;;35.20;15.13;;;;;;;2.09;83.88;98667.87;2071458;84;21117;-77
2022/01/05 14:32:44;;;;;;;13.45;6.30;;;;;;;2.07;83.81;98667.67;2084536;84;21008;-77
2022/01/05 14:35:51;;;;;;;25.50;9.68;;;;;;;2.07;83.65;98676.34;2085772;84;21551;-76
2022/01/05 14:39:01;;;;;;;33.88;11.65;;;;;;;2.06;83.58;98686.48;2082844;84;21397;-75
2022/01/05 14:42:15;;;;;;;31.13;10.37;;;;;;;2.04;83.39;98692.34;2084057;83;21059;-77
2022/01/05 14:45:18;;;;;;;51.30;18.15;;;;;;;2.02;83.35;98693.78;2084121;84;21468;-76
2022/01/05 14:48:20;;;;;;;67.15;27.85;;;;;;;2.01;83.43;98686.09;2084827;84;22007;-76
2022/01/05 14:51:25;;;;;;;34.18;14.40;;;;;;;2.00;83.36;98689.69;2081752;84;21127;-77
2022/01/05 14:54:37;;;;;;;17.20;6.47;;;;;;;1.98;83.20;98668.08;2085624;84;21070;-74
2022/01/05 14:57:41;;;;;;;12.07;5.17;;;;;;;1.93;82.94;98683.39;2086009;84;21036;-76